Time;durP1;ratioP1;P1;durP2;ratioP2;P2;SDS_P1;SDS_P2;PMS_P1;PMS_P2;Temp;Humidity;BMP_temperature;BMP_pressure;BME280_temperature;BME280_humidity;BME280_pressure;Samples;Min_cycle;Max_cycle;Signal;HPM_P1;HPM_P2
2023/12/16 00:01:50;;;;;;;13.23;3.13;;;7.20;99.90;;;;;;5096990;28;20069;-75
2023/12/16 00:04:16;;;;;;;12.57;2.70;;;7.20;99.90;;;;;;5096836;28;20500;-75
2023/12/16 00:06:41;;;;;;;11.93;2.77;;;7.20;99.90;;;;;;5096617;28;20044;-75
2023/12/16 00:09:07;;;;;;;9.70;3.00;;;7.20;99.90;;;;;;5095411;28;20342;-75
2023/12/16 00:11:33;;;;;;;10.43;2.60;;;7.20;99.90;;;;;;5097012;28;20040;-75
2023/12/16 00:13:58;;;;;;;14.47;2.80;;;7.10;99.90;;;;;;5096749;28;20368;-75
2023/12/16 00:16:25;;;;;;;17.37;2.67;;;7.10;99.90;;;;;;5097594;28;20040;-75
2023/12/16 00:18:52;;;;;;;14.67;2.87;;;7.10;99.90;;;;;;5096106;28;20128;-75
2023/12/16 00:21:18;;;;;;;11.87;2.40;;;7.00;99.90;;;;;;5096968;28;20290;-75
2023/12/16 00:23:43;;;;;;;14.97;3.10;;;7.00;99.90;;;;;;5096959;28;20312;-74
2023/12/16 00:26:09;;;;;;;11.37;2.60;;;7.00;99.90;;;;;;5096889;28;20044;-75
2023/12/16 00:28:35;;;;;;;15.10;2.67;;;7.00;99.90;;;;;;5096762;28;20069;-75
2023/12/16 00:31:01;;;;;;;12.27;2.67;;;6.90;99.90;;;;;;5079060;28;20048;-74
2023/12/16 00:33:26;;;;;;;14.10;2.70;;;6.90;99.90;;;;;;5096703;28;20051;-75
2023/12/16 00:35:52;;;;;;;12.57;2.17;;;6.90;99.90;;;;;;5095759;28;20082;-75
2023/12/16 00:38:18;;;;;;;13.50;2.60;;;6.90;99.90;;;;;;5096626;28;20137;-75
2023/12/16 00:40:44;;;;;;;15.07;3.23;;;6.90;99.90;;;;;;5095428;28;20051;-75
2023/12/16 00:43:09;;;;;;;12.10;2.43;;;6.90;99.90;;;;;;5096611;28;20048;-75
2023/12/16 00:45:35;;;;;;;12.30;2.63;;;6.90;99.90;;;;;;5096580;28;20492;-75
2023/12/16 00:48:01;;;;;;;14.63;2.50;;;6.90;99.90;;;;;;5096524;28;20149;-75
2023/12/16 00:50:27;;;;;;;9.37;2.93;;;6.80;99.90;;;;;;5095978;28;20047;-75
2023/12/16 00:52:52;;;;;;;11.33;2.60;;;6.80;99.90;;;;;;5096116;28;20474;-75
2023/12/16 00:55:18;;;;;;;11.57;2.53;;;6.80;99.90;;;;;;5095434;28;20054;-75
2023/12/16 00:57:44;;;;;;;9.50;2.50;;;6.80;99.90;;;;;;5095756;28;20060;-74
2023/12/16 01:00:10;;;;;;;13.87;2.37;;;6.70;99.90;;;;;;5095681;28;20089;-75
2023/12/16 01:02:36;;;;;;;9.37;2.13;;;6.70;99.90;;;;;;5095873;28;20050;-75
2023/12/16 01:05:03;;;;;;;12.73;2.17;;;6.70;99.90;;;;;;5095812;28;20273;-75
2023/12/16 01:07:29;;;;;;;11.33;2.70;;;6.70;99.90;;;;;;5094481;28;20052;-75
2023/12/16 01:09:54;;;;;;;10.80;2.20;;;6.70;99.90;;;;;;5096729;28;20305;-74
2023/12/16 01:12:20;;;;;;;11.43;2.20;;;6.70;99.90;;;;;;5095984;28;20044;-75
2023/12/16 01:14:46;;;;;;;12.73;2.37;;;6.70;99.90;;;;;;5095011;28;20051;-75
2023/12/16 01:17:12;;;;;;;11.13;2.83;;;6.70;99.90;;;;;;5095892;28;20051;-75
2023/12/16 01:19:38;;;;;;;12.80;2.37;;;6.70;99.90;;;;;;5095854;28;20040;-75
2023/12/16 01:22:03;;;;;;;11.37;2.00;;;6.70;99.90;;;;;;5095788;28;20052;-75
2023/12/16 01:24:32;;;;;;;10.07;2.27;;;6.60;99.90;;;;;;5095712;28;20396;-75
2023/12/16 01:26:58;;;;;;;12.33;2.37;;;6.70;99.90;;;;;;5095973;28;20104;-75
2023/12/16 01:29:23;;;;;;;11.97;2.43;;;6.60;99.90;;;;;;5095264;28;20385;-75
2023/12/16 01:31:49;;;;;;;8.23;2.00;;;6.70;99.90;;;;;;5095639;28;20051;-75
2023/12/16 01:34:14;;;;;;;11.87;2.30;;;6.70;99.90;;;;;;5095600;28;20052;-75
2023/12/16 01:36:40;;;;;;;11.50;2.10;;;6.60;99.90;;;;;;5094336;28;20039;-75
2023/12/16 01:39:06;;;;;;;11.50;2.63;;;6.60;99.90;;;;;;5095963;28;20146;-75
2023/12/16 01:41:31;;;;;;;14.77;2.97;;;6.60;99.90;;;;;;5094304;28;20052;-75
2023/12/16 01:43:57;;;;;;;14.37;2.70;;;6.60;99.90;;;;;;5095644;28;20048;-75
2023/12/16 01:46:23;;;;;;;13.17;2.87;;;6.60;99.90;;;;;;5078290;28;20447;-75
2023/12/16 01:48:49;;;;;;;13.33;2.40;;;6.60;99.90;;;;;;5095760;28;20046;-75
2023/12/16 01:51:17;;;;;;;11.97;2.20;;;6.60;99.90;;;;;;5095233;28;20274;-75
2023/12/16 01:53:43;;;;;;;16.73;3.23;;;6.60;99.90;;;;;;5095328;28;20419;-75
2023/12/16 01:56:09;;;;;;;14.30;2.53;;;6.60;99.90;;;;;;5095072;28;20297;-75
2023/12/16 01:58:37;;;;;;;10.70;2.20;;;6.50;99.90;;;;;;5094771;28;20289;-75
2023/12/16 02:01:03;;;;;;;11.07;2.83;;;6.50;99.90;;;;;;5095625;28;20346;-75
2023/12/16 02:03:30;;;;;;;13.77;2.67;;;6.50;99.90;;;;;;5095016;28;20278;-75
2023/12/16 02:05:57;;;;;;;16.60;2.83;;;6.60;99.90;;;;;;5095023;28;20285;-75
2023/12/16 02:08:23;;;;;;;16.97;3.30;;;6.60;99.90;;;;;;5094699;28;20614;-75
2023/12/16 02:10:49;;;;;;;16.70;2.80;;;6.60;99.90;;;;;;5093703;28;20281;-75
2023/12/16 02:13:15;;;;;;;13.77;3.07;;;6.60;99.90;;;;;;5094700;28;20274;-75
2023/12/16 02:15:40;;;;;;;16.00;2.57;;;6.60;99.90;;;;;;5093820;28;20109;-75
2023/12/16 02:18:06;;;;;;;15.77;2.50;;;6.60;99.90;;;;;;5094133;28;20071;-75
2023/12/16 02:20:32;;;;;;;14.07;3.03;;;6.60;99.90;;;;;;5093415;28;20043;-75
2023/12/16 02:23:00;;;;;;;15.83;3.47;;;6.60;99.90;;;;;;5095002;28;20047;-75
2023/12/16 02:25:26;;;;;;;18.60;2.93;;;6.60;99.90;;;;;;5094647;28;20078;-75
2023/12/16 02:27:52;;;;;;;15.23;2.73;;;6.60;99.90;;;;;;5094504;28;20281;-75
2023/12/16 02:30:20;;;;;;;13.93;2.60;;;6.60;99.90;;;;;;5094467;28;20047;-75
2023/12/16 02:32:46;;;;;;;15.37;3.17;;;6.60;99.90;;;;;;5093561;28;20056;-75
2023/12/16 02:35:12;;;;;;;13.97;2.93;;;6.70;99.90;;;;;;5093255;28;20274;-75
2023/12/16 02:37:38;;;;;;;17.03;4.13;;;6.60;99.90;;;;;;5093062;28;20724;-75
2023/12/16 02:40:04;;;;;;;16.23;2.37;;;6.60;99.90;;;;;;5093983;28;20044;-75
2023/12/16 02:42:30;;;;;;;17.97;3.50;;;6.60;99.90;;;;;;5094887;28;20043;-75
2023/12/16 02:44:56;;;;;;;19.80;3.77;;;6.60;99.90;;;;;;5094310;28;20351;-75
2023/12/16 02:47:21;;;;;;;21.87;3.67;;;6.60;99.90;;;;;;5094483;28;20314;-75
2023/12/16 02:49:47;;;;;;;16.47;3.23;;;6.50;99.90;;;;;;5094047;28;20036;-75
2023/12/16 02:52:13;;;;;;;15.73;3.90;;;6.50;99.90;;;;;;5094089;28;20043;-75
2023/12/16 02:54:39;;;;;;;18.53;3.53;;;6.50;99.90;;;;;;5093578;28;20376;-75
2023/12/16 02:57:05;;;;;;;13.77;2.70;;;6.50;99.90;;;;;;5093522;28;20048;-75
2023/12/16 02:59:30;;;;;;;23.57;4.40;;;6.50;99.90;;;;;;5093436;28;20048;-75
2023/12/16 03:01:56;;;;;;;21.60;4.40;;;6.50;99.90;;;;;;5093600;28;20124;-75
2023/12/16 03:04:22;;;;;;;17.73;3.93;;;6.40;99.90;;;;;;5094079;28;20093;-75
2023/12/16 03:06:47;;;;;;;19.77;4.10;;;6.40;99.90;;;;;;5093449;28;20426;-75
2023/12/16 03:09:13;;;;;;;20.93;3.87;;;6.40;99.90;;;;;;5094416;28;20040;-75
2023/12/16 03:11:39;;;;;;;14.83;3.37;;;6.50;99.90;;;;;;5094397;28;20040;-75
2023/12/16 03:14:05;;;;;;;15.43;3.43;;;6.50;99.90;;;;;;5093730;28;20335;-75
2023/12/16 03:16:33;;;;;;;20.50;3.40;;;6.50;99.90;;;;;;5094286;28;20044;-75
2023/12/16 03:19:00;;;;;;;18.73;3.70;;;6.50;99.90;;;;;;5093797;28;20130;-75
2023/12/16 03:21:25;;;;;;;20.87;3.93;;;6.50;99.90;;;;;;5093734;28;20278;-75
2023/12/16 03:23:51;;;;;;;17.70;3.77;;;6.50;99.90;;;;;;5092778;28;20283;-75
2023/12/16 03:26:17;;;;;;;20.03;3.87;;;6.50;99.90;;;;;;5094362;28;20382;-75
2023/12/16 03:28:43;;;;;;;19.67;3.80;;;6.50;99.90;;;;;;5093613;28;20131;-75
2023/12/16 03:31:08;;;;;;;15.87;3.77;;;6.50;99.90;;;;;;5094995;28;20044;-75
2023/12/16 03:33:34;;;;;;;20.63;3.37;;;6.50;99.90;;;;;;5097487;28;20048;-75
2023/12/16 03:36:00;;;;;;;14.77;3.87;;;6.40;99.90;;;;;;5098289;28;20085;-75
2023/12/16 03:38:25;;;;;;;16.50;3.83;;;6.50;99.90;;;;;;5097683;28;20044;-75
2023/12/16 03:40:51;;;;;;;24.30;4.37;;;6.40;99.90;;;;;;5097471;28;20044;-75
2023/12/16 03:43:20;;;;;;;23.00;3.90;;;6.40;99.90;;;;;;5097694;28;20044;-75
2023/12/16 03:45:45;;;;;;;20.00;4.63;;;6.40;99.90;;;;;;5097586;28;20050;-75
2023/12/16 03:48:11;;;;;;;17.87;4.43;;;6.30;99.90;;;;;;5096291;28;20373;-75
2023/12/16 03:50:37;;;;;;;15.80;3.60;;;6.30;99.90;;;;;;5096182;28;20047;-75
2023/12/16 03:53:02;;;;;;;19.83;4.10;;;6.30;99.90;;;;;;5096764;28;20040;-75
2023/12/16 03:55:28;;;;;;;18.23;3.67;;;6.30;99.90;;;;;;5096433;28;20387;-75
2023/12/16 03:57:54;;;;;;;24.60;4.70;;;6.30;99.90;;;;;;5097873;28;20066;-75
2023/12/16 04:00:20;;;;;;;24.50;4.60;;;6.30;99.90;;;;;;5097521;28;20391;-75
2023/12/16 04:02:45;;;;;;;22.13;4.80;;;6.30;99.90;;;;;;5097277;28;20054;-75
2023/12/16 04:05:11;;;;;;;22.30;5.03;;;6.30;99.90;;;;;;5097180;28;20048;-75
2023/12/16 04:07:37;;;;;;;29.30;4.83;;;6.30;99.90;;;;;;5096199;28;20044;-74
2023/12/16 04:10:03;;;;;;;24.83;4.90;;;6.40;99.90;;;;;;5097052;28;20040;-75
2023/12/16 04:12:29;;;;;;;22.10;4.57;;;6.40;99.90;;;;;;5097079;28;20132;-74
2023/12/16 04:14:55;;;;;;;22.33;4.20;;;6.40;99.90;;;;;;5097032;28;20357;-75
2023/12/16 04:17:21;;;;;;;19.27;4.93;;;6.30;99.90;;;;;;5097862;28;20083;-75
2023/12/16 04:19:51;;;;;;;19.93;4.07;;;6.30;99.90;;;;;;5096909;28;20081;-75
2023/12/16 04:22:17;;;;;;;21.07;4.03;;;6.30;99.90;;;;;;5097232;28;20103;-75
2023/12/16 04:24:43;;;;;;;21.97;4.67;;;6.30;99.90;;;;;;5096833;28;20278;-75
2023/12/16 04:27:09;;;;;;;22.00;4.37;;;6.30;99.90;;;;;;5078767;28;20286;-75
2023/12/16 04:29:34;;;;;;;22.30;3.93;;;6.20;99.90;;;;;;5097434;28;20798;-75
2023/12/16 04:32:00;;;;;;;18.03;4.37;;;6.20;99.90;;;;;;5096748;28;20056;-75
2023/12/16 04:34:26;;;;;;;21.87;4.60;;;6.20;99.90;;;;;;5096645;28;20040;-75
2023/12/16 04:36:52;;;;;;;19.07;3.90;;;6.20;99.90;;;;;;5096843;28;20069;-75
2023/12/16 04:39:18;;;;;;;18.57;4.07;;;6.10;99.90;;;;;;5096561;28;20206;-75
2023/12/16 04:41:44;;;;;;;23.00;5.07;;;6.10;99.90;;;;;;5095992;28;20372;-75
2023/12/16 04:44:10;;;;;;;26.90;4.47;;;6.10;99.90;;;;;;5096129;28;20093;-75
2023/12/16 04:46:35;;;;;;;22.50;4.17;;;6.10;99.90;;;;;;5096696;28;20047;-75
2023/12/16 04:49:01;;;;;;;24.27;5.30;;;6.10;99.90;;;;;;5096262;28;20040;-75
2023/12/16 04:51:27;;;;;;;31.17;5.17;;;6.10;99.90;;;;;;5096341;28;20044;-75
2023/12/16 04:53:53;;;;;;;28.97;5.10;;;6.10;99.90;;;;;;5096210;28;20762;-75
2023/12/16 04:56:19;;;;;;;27.13;4.90;;;6.10;99.90;;;;;;5096203;28;20315;-75
2023/12/16 04:58:45;;;;;;;24.20;6.17;;;6.10;99.90;;;;;;5096473;28;20052;-75
2023/12/16 05:01:10;;;;;;;29.40;6.90;;;6.10;99.90;;;;;;5095912;28;20131;-75
2023/12/16 05:03:36;;;;;;;24.97;5.50;;;6.10;99.90;;;;;;5096645;28;20047;-75
2023/12/16 05:06:02;;;;;;;25.00;5.90;;;6.20;99.90;;;;;;5095746;28;20044;-75
2023/12/16 05:08:27;;;;;;;27.10;6.23;;;6.20;99.90;;;;;;5095963;28;20044;-75
2023/12/16 05:10:53;;;;;;;26.43;6.33;;;6.20;99.90;;;;;;5095984;28;20048;-75
2023/12/16 05:13:19;;;;;;;38.50;6.73;;;6.20;99.90;;;;;;5096162;28;20464;-75
2023/12/16 05:15:44;;;;;;;37.10;6.87;;;6.30;99.90;;;;;;5095764;28;20485;-75
2023/12/16 05:18:10;;;;;;;31.63;6.73;;;6.30;99.90;;;;;;5078755;28;20055;-75
2023/12/16 05:20:37;;;;;;;32.60;6.40;;;6.30;99.90;;;;;;5095811;28;20492;-75
2023/12/16 05:23:03;;;;;;;26.37;6.70;;;6.30;99.90;;;;;;5095718;28;20050;-75
2023/12/16 05:25:29;;;;;;;29.87;6.77;;;6.40;99.90;;;;;;5095667;28;20282;-75
2023/12/16 05:27:56;;;;;;;27.00;6.17;;;6.50;99.90;;;;;;5095619;28;20101;-75
2023/12/16 05:30:21;;;;;;;26.40;6.33;;;6.50;99.90;;;;;;5095500;28;20290;-75
2023/12/16 05:32:47;;;;;;;29.97;7.07;;;6.60;99.90;;;;;;5094484;28;20287;-75
2023/12/16 05:35:13;;;;;;;32.63;6.50;;;6.60;99.90;;;;;;5095468;28;20048;-75
2023/12/16 05:37:40;;;;;;;43.87;6.73;;;6.70;99.90;;;;;;5095445;28;20479;-75
2023/12/16 05:40:06;;;;;;;29.97;6.30;;;6.70;99.90;;;;;;5095146;28;20492;-75
2023/12/16 05:42:31;;;;;;;37.10;7.10;;;6.80;99.90;;;;;;5095353;28;20274;-75
2023/12/16 05:44:57;;;;;;;28.67;7.17;;;6.90;99.90;;;;;;5095864;28;20753;-75
2023/12/16 05:47:23;;;;;;;36.33;6.37;;;6.90;99.90;;;;;;5095350;28;20560;-75
2023/12/16 05:49:48;;;;;;;31.93;7.10;;;6.90;99.90;;;;;;5095617;28;20070;-75
2023/12/16 05:52:14;;;;;;;34.60;7.37;;;7.00;99.90;;;;;;5095191;28;20043;-75
2023/12/16 05:54:40;;;;;;;25.63;6.87;;;7.00;99.90;;;;;;5094663;28;20488;-75
2023/12/16 05:57:06;;;;;;;33.27;6.90;;;7.00;99.90;;;;;;5094802;28;20489;-75
2023/12/16 05:59:31;;;;;;;39.03;7.53;;;7.00;99.90;;;;;;5094754;28;20067;-75
2023/12/16 06:01:57;;;;;;;43.13;8.13;;;7.00;99.90;;;;;;5094894;28;20517;-75
2023/12/16 06:04:23;;;;;;;36.10;8.17;;;7.00;99.90;;;;;;5095238;28;20051;-75
2023/12/16 06:06:48;;;;;;;36.97;8.00;;;7.00;99.90;;;;;;5094880;28;20489;-75
2023/12/16 06:09:14;;;;;;;33.07;8.20;;;7.10;99.90;;;;;;5094722;28;20044;-75
2023/12/16 06:11:40;;;;;;;39.27;8.70;;;7.10;99.90;;;;;;5095381;28;20044;-75
2023/12/16 06:14:06;;;;;;;43.60;8.10;;;7.10;99.90;;;;;;5095341;28;20101;-75
2023/12/16 06:16:32;;;;;;;38.80;8.83;;;7.10;99.90;;;;;;5094699;28;20085;-75
2023/12/16 06:18:59;;;;;;;38.43;8.60;;;7.10;99.90;;;;;;5094669;28;20047;-75
2023/12/16 06:21:24;;;;;;;35.77;8.23;;;7.20;99.90;;;;;;5094627;28;20362;-75
2023/12/16 06:23:50;;;;;;;30.33;8.37;;;7.20;99.90;;;;;;5093594;28;20373;-75
2023/12/16 06:26:16;;;;;;;35.07;8.70;;;7.20;99.90;;;;;;5076771;28;20044;-75
2023/12/16 06:28:42;;;;;;;36.77;9.07;;;7.20;99.90;;;;;;5094395;28;20126;-75
2023/12/16 06:31:16;;;;;;;36.87;9.43;;;7.20;99.90;;;;;;5095260;28;20052;-75
2023/12/16 06:33:42;;;;;;;29.40;7.45;;;7.20;99.90;;;;;;5094773;28;20495;-75
2023/12/16 06:36:08;;;;;;;39.33;10.43;;;7.20;99.90;;;;;;5094165;28;20044;-75
2023/12/16 06:38:33;;;;;;;41.20;10.93;;;7.20;99.90;;;;;;5094855;28;20143;-75
2023/12/16 06:40:59;;;;;;;35.70;10.00;;;7.20;99.90;;;;;;5093315;28;20048;-75
2023/12/16 06:43:25;;;;;;;34.37;9.47;;;7.30;99.90;;;;;;5092764;28;20135;-75
2023/12/16 06:45:50;;;;;;;39.60;10.07;;;7.20;99.90;;;;;;5094517;28;20051;-75
2023/12/16 06:48:16;;;;;;;43.43;10.53;;;7.20;99.90;;;;;;5094157;28;20391;-75
2023/12/16 06:50:42;;;;;;;40.33;11.10;;;7.30;99.90;;;;;;5094830;28;20050;-75
2023/12/16 06:53:08;;;;;;;36.30;9.50;;;7.30;99.90;;;;;;5093460;28;20192;-75
2023/12/16 06:55:34;;;;;;;52.30;12.10;;;7.20;99.90;;;;;;5094047;28;20399;-75
2023/12/16 06:58:00;;;;;;;35.27;9.63;;;7.20;99.90;;;;;;5093964;28;20391;-75
2023/12/16 07:00:25;;;;;;;33.20;10.10;;;7.30;99.90;;;;;;5094223;28;20043;-75
2023/12/16 07:02:51;;;;;;;39.43;12.10;;;7.30;99.90;;;;;;5093892;28;20043;-75
2023/12/16 07:05:17;;;;;;;41.40;11.13;;;7.30;99.90;;;;;;5093772;28;20079;-75
2023/12/16 07:07:44;;;;;;;41.63;11.17;;;7.30;99.90;;;;;;5093511;28;20325;-75
2023/12/16 07:10:10;;;;;;;41.57;12.03;;;7.30;99.90;;;;;;5094217;28;20048;-75
2023/12/16 07:12:36;;;;;;;33.47;10.50;;;7.30;99.90;;;;;;5093804;28;20285;-75
2023/12/16 07:15:01;;;;;;;42.30;12.20;;;7.30;99.90;;;;;;5075682;28;20051;-75
2023/12/16 07:17:27;;;;;;;37.60;11.17;;;7.30;99.90;;;;;;5093752;28;20043;-75
2023/12/16 07:19:53;;;;;;;37.23;11.57;;;7.30;99.90;;;;;;5092441;28;20496;-75
2023/12/16 07:22:19;;;;;;;40.13;10.83;;;7.30;99.90;;;;;;5093378;28;20522;-75
2023/12/16 07:24:45;;;;;;;39.80;11.30;;;7.30;99.90;;;;;;5093614;28;20048;-75
2023/12/16 07:27:11;;;;;;;44.03;12.33;;;7.30;99.90;;;;;;5093626;28;20071;-75
2023/12/16 07:29:37;;;;;;;45.13;11.97;;;7.30;99.90;;;;;;5094062;28;20626;-75
2023/12/16 07:32:05;;;;;;;39.23;12.70;;;7.30;99.90;;;;;;5093494;28;20274;-75
2023/12/16 07:34:31;;;;;;;56.80;13.07;;;7.30;99.90;;;;;;5093553;28;20044;-75
2023/12/16 07:36:57;;;;;;;45.93;12.67;;;7.30;99.90;;;;;;5092358;28;20780;-75
2023/12/16 07:39:24;;;;;;;39.53;12.97;;;7.30;99.90;;;;;;5093404;28;20120;-75
2023/12/16 07:41:49;;;;;;;42.23;12.17;;;7.30;99.90;;;;;;5092272;28;20098;-75
2023/12/16 07:44:15;;;;;;;40.07;13.07;;;7.30;99.90;;;;;;5094252;28;20282;-75
2023/12/16 07:46:41;;;;;;;45.70;11.90;;;7.30;99.90;;;;;;5093472;28;20048;-75
2023/12/16 07:49:07;;;;;;;50.27;11.70;;;7.30;99.90;;;;;;5093362;28;20472;-75
2023/12/16 07:51:33;;;;;;;42.60;11.90;;;7.30;99.90;;;;;;5093319;28;20271;-75
2023/12/16 07:53:59;;;;;;;34.53;11.33;;;7.40;99.90;;;;;;5093318;28;20772;-75
2023/12/16 07:56:28;;;;;;;47.93;12.77;;;7.40;99.90;;;;;;5093764;28;20468;-75
2023/12/16 07:58:55;;;;;;;46.77;11.87;;;7.40;99.90;;;;;;5093896;28;20483;-75
2023/12/16 08:01:21;;;;;;;43.17;10.80;;;7.40;99.90;;;;;;5093821;28;20314;-75
2023/12/16 08:03:47;;;;;;;40.80;10.73;;;7.50;99.90;;;;;;5093872;28;20314;-75
2023/12/16 08:06:17;;;;;;;38.17;9.90;;;7.40;99.90;;;;;;5094069;28;20048;-75
2023/12/16 08:08:43;;;;;;;36.03;9.17;;;7.50;99.90;;;;;;5093170;28;20274;-75
2023/12/16 08:11:10;;;;;;;44.20;10.27;;;7.50;99.90;;;;;;5092227;28;20769;-75
2023/12/16 08:13:36;;;;;;;38.60;9.87;;;7.50;99.90;;;;;;5093772;28;20297;-75
2023/12/16 08:16:04;;;;;;;44.20;10.03;;;7.60;99.90;;;;;;5093239;28;20274;-75
2023/12/16 08:18:31;;;;;;;39.37;10.00;;;7.60;99.90;;;;;;5097037;28;20290;-75
2023/12/16 08:20:57;;;;;;;44.17;10.53;;;7.50;99.90;;;;;;5096938;28;20273;-75
2023/12/16 08:23:23;;;;;;;51.97;11.43;;;7.60;99.90;;;;;;5096854;28;20291;-75
2023/12/16 08:25:48;;;;;;;38.37;9.70;;;7.60;99.90;;;;;;5095670;28;20047;-75
2023/12/16 08:28:14;;;;;;;40.97;10.67;;;7.60;99.90;;;;;;5096104;28;20052;-75
2023/12/16 08:30:40;;;;;;;42.57;8.93;;;7.60;99.90;;;;;;5096366;28;20329;-75
2023/12/16 08:33:06;;;;;;;43.60;9.80;;;7.60;99.90;;;;;;5096731;28;20052;-75
2023/12/16 08:35:31;;;;;;;49.13;10.57;;;7.60;99.90;;;;;;5095569;28;20118;-75
2023/12/16 08:37:57;;;;;;;44.63;9.17;;;7.60;99.90;;;;;;5097160;28;20464;-74
2023/12/16 08:40:24;;;;;;;48.00;9.60;;;7.70;99.90;;;;;;5095528;28;20094;-75
2023/12/16 08:42:50;;;;;;;45.73;9.53;;;7.70;99.90;;;;;;5096357;28;20040;-75
2023/12/16 08:45:16;;;;;;;49.20;9.33;;;7.70;99.90;;;;;;5096475;28;20746;-75
2023/12/16 08:47:43;;;;;;;52.20;9.97;;;7.80;99.90;;;;;;5095508;28;20483;-75
2023/12/16 08:50:09;;;;;;;38.30;8.50;;;7.80;99.90;;;;;;5096281;28;20050;-75
2023/12/16 08:52:36;;;;;;;41.67;8.43;;;7.80;99.90;;;;;;5095334;28;20838;-76
2023/12/16 08:55:03;;;;;;;43.63;9.93;;;7.80;99.90;;;;;;5096322;28;20323;-78
2023/12/16 08:57:29;;;;;;;53.63;9.43;;;7.80;99.90;;;;;;5095511;28;20583;-79
2023/12/16 08:59:55;;;;;;;48.03;9.23;;;7.80;99.90;;;;;;5095671;28;20324;-80
2023/12/16 09:02:21;;;;;;;35.93;9.47;;;7.90;99.90;;;;;;5096732;28;20044;-77
2023/12/16 09:04:47;;;;;;;41.00;10.57;;;7.90;99.90;;;;;;5094944;28;20174;-77
2023/12/16 09:07:13;;;;;;;39.23;9.13;;;7.80;99.90;;;;;;5096059;28;20336;-77
2023/12/16 09:09:39;;;;;;;50.20;9.30;;;7.90;99.90;;;;;;5096723;28;20414;-78
2023/12/16 09:12:08;;;;;;;46.50;9.73;;;7.80;99.90;;;;;;5095875;28;20498;-76
2023/12/16 09:14:34;;;;;;;46.87;9.97;;;7.90;99.90;;;;;;5095904;28;20313;-77
2023/12/16 09:17:00;;;;;;;53.47;10.50;;;7.90;99.90;;;;;;5095901;28;20274;-77
2023/12/16 09:19:26;;;;;;;43.43;11.23;;;7.90;99.90;;;;;;5095886;28;20043;-77
2023/12/16 09:21:52;;;;;;;46.83;9.83;;;7.90;99.90;;;;;;5095807;28;20281;-77
2023/12/16 09:24:18;;;;;;;50.60;11.27;;;7.80;99.90;;;;;;5096472;28;20597;-78
2023/12/16 09:26:44;;;;;;;51.70;11.13;;;7.90;99.90;;;;;;5095779;28;20080;-77
2023/12/16 09:29:11;;;;;;;49.80;11.03;;;7.90;99.90;;;;;;5094438;28;20286;-78
2023/12/16 09:31:37;;;;;;;51.13;10.20;;;7.90;99.90;;;;;;5095429;28;20394;-79
2023/12/16 09:34:03;;;;;;;58.40;11.33;;;7.90;99.90;;;;;;5077881;28;20289;-78
2023/12/16 09:36:29;;;;;;;50.17;10.23;;;7.90;99.90;;;;;;5095139;28;20278;-78
2023/12/16 09:38:56;;;;;;;61.40;11.17;;;7.90;99.90;;;;;;5095523;28;20044;-78
2023/12/16 09:41:31;;;;;;;54.23;11.77;;;7.90;99.90;;;;;;5094265;28;20360;-79
2023/12/16 09:43:58;;;;;;;56.40;11.35;;;7.90;99.90;;;;;;5094206;28;20374;-80
2023/12/16 09:46:30;;;;;;;63.23;11.33;;;7.90;99.90;;;;;;5095330;28;20044;-80
2023/12/16 09:48:55;;;;;;;60.63;11.73;;;7.90;99.90;;;;;;5095244;28;20336;-80
2023/12/16 09:51:23;;;;;;;54.23;10.83;;;8.00;99.90;;;;;;5095228;28;20377;-79
2023/12/16 09:53:50;;;;;;;58.33;12.70;;;8.00;99.90;;;;;;5094212;28;20676;-80
2023/12/16 09:56:17;;;;;;;58.50;11.30;;;8.00;99.90;;;;;;5093931;28;20290;-79
2023/12/16 09:58:45;;;;;;;49.30;10.53;;;8.00;99.90;;;;;;5093916;28;20615;-79
2023/12/16 10:01:11;;;;;;;57.00;12.50;;;8.00;99.90;;;;;;5094965;28;20285;-77
2023/12/16 10:03:38;;;;;;;63.93;13.00;;;8.00;99.90;;;;;;5094258;28;20278;-82
2023/12/16 10:06:06;;;;;;;59.20;13.63;;;8.00;99.90;;;;;;5094775;28;20274;-81
2023/12/16 10:08:33;;;;;;;56.53;13.43;;;8.00;99.90;;;;;;5094828;28;20313;-82
2023/12/16 10:10:59;;;;;;;51.40;13.50;;;8.00;99.90;;;;;;5095661;28;20282;-80
2023/12/16 10:13:30;;;;;;;67.77;14.13;;;8.00;99.90;;;;;;5093663;28;20321;-80
2023/12/16 10:15:56;;;;;;;58.17;14.77;;;8.00;99.90;;;;;;5094867;28;20285;-78
2023/12/16 10:18:22;;;;;;;54.70;15.40;;;8.10;99.90;;;;;;5094713;28;20274;-78
2023/12/16 10:20:48;;;;;;;55.43;14.73;;;8.10;99.90;;;;;;5094711;28;20278;-80
2023/12/16 10:23:14;;;;;;;50.73;14.53;;;8.10;99.90;;;;;;5094620;28;20278;-75
2023/12/16 10:25:42;;;;;;;55.33;16.07;;;8.10;99.90;;;;;;5093392;28;20051;-78
2023/12/16 10:28:10;;;;;;;56.67;16.07;;;8.10;99.90;;;;;;5094291;28;20047;-80
2023/12/16 10:30:36;;;;;;;60.50;17.40;;;8.20;99.90;;;;;;5094397;28;20298;-76
2023/12/16 10:33:06;;;;;;;48.20;16.13;;;8.20;99.90;;;;;;5093422;28;20603;-78
2023/12/16 10:35:33;;;;;;;51.43;16.60;;;8.10;99.90;;;;;;5094318;28;20055;-79
2023/12/16 10:37:59;;;;;;;46.83;16.33;;;8.20;99.90;;;;;;5094286;28;20290;-80
2023/12/16 10:40:26;;;;;;;44.50;14.17;;;8.20;99.90;;;;;;5093324;28;20294;-80
2023/12/16 10:42:52;;;;;;;43.73;14.50;;;8.20;99.90;;;;;;5094486;28;20277;-81
2023/12/16 10:45:18;;;;;;;44.13;15.23;;;8.20;99.90;;;;;;5093154;28;20666;-79
2023/12/16 10:47:48;;;;;;;50.60;16.33;;;8.20;99.90;;;;;;5093178;28;20047;-81
2023/12/16 10:50:15;;;;;;;49.10;15.63;;;8.20;99.90;;;;;;5092862;28;20052;-79
2023/12/16 10:52:52;;;;;;;55.60;16.83;;;8.20;99.90;;;;;;5093129;28;20286;-80
2023/12/16 10:55:38;;;;;;;51.33;16.70;;;8.20;99.90;;;;;;5093111;28;20282;-82
2023/12/16 10:58:16;;;;;;;56.47;17.70;;;8.20;99.90;;;;;;5109895;28;20286;-77
2023/12/16 11:00:46;;;;;;;48.53;17.27;;;8.20;99.90;;;;;;5077044;28;20286;-76
2023/12/16 11:03:22;;;;;;;44.70;16.30;;;8.20;99.90;;;;;;5093944;28;20278;-79
2023/12/16 11:05:56;;;;;;;43.53;15.87;;;8.20;99.90;;;;;;5093967;28;20285;-81
2023/12/16 11:08:22;;;;;;;38.30;15.10;;;8.20;99.90;;;;;;5094040;28;20317;-85
2023/12/16 11:10:49;;;;;;;43.87;14.80;;;8.20;99.90;;;;;;5093224;28;20342;-82
2023/12/16 11:13:16;;;;;;;41.40;14.67;;;8.20;99.90;;;;;;5092891;28;20347;-81
2023/12/16 11:15:43;;;;;;;42.33;14.63;;;8.30;99.90;;;;;;5093812;28;20335;-79
2023/12/16 11:18:16;;;;;;;40.13;14.70;;;8.30;99.90;;;;;;5093834;28;20278;-80
2023/12/16 11:20:47;;;;;;;39.40;14.17;;;8.30;99.90;;;;;;5093287;28;20646;-84
2023/12/16 11:23:16;;;;;;;35.53;14.43;;;8.30;99.90;;;;;;5094433;28;20362;-79
2023/12/16 11:25:42;;;;;;;39.40;14.63;;;8.30;99.90;;;;;;5093819;28;20270;-76
2023/12/16 11:28:09;;;;;;;36.10;14.90;;;8.30;99.90;;;;;;5093772;28;20275;-77
2023/12/16 11:30:35;;;;;;;34.93;14.70;;;8.30;99.90;;;;;;5093636;28;20294;-77
2023/12/16 11:33:01;;;;;;;38.80;14.77;;;8.30;99.90;;;;;;5093746;28;20407;-77
2023/12/16 11:35:36;;;;;;;32.33;13.27;;;8.30;99.90;;;;;;5093674;28;20040;-75
2023/12/16 11:38:08;;;;;;;35.55;13.90;;;8.40;99.90;;;;;;5092664;28;20785;-76
2023/12/16 11:40:41;;;;;;;39.13;14.00;;;8.30;99.90;;;;;;5093697;28;20495;-79
2023/12/16 11:43:11;;;;;;;29.63;12.47;;;8.40;99.90;;;;;;5092944;28;20751;-78
2023/12/16 11:45:42;;;;;;;33.93;13.30;;;8.40;99.90;;;;;;5093556;28;20282;-76
2023/12/16 11:48:14;;;;;;;32.20;13.07;;;8.40;99.90;;;;;;5093591;28;20290;-76
2023/12/16 11:50:42;;;;;;;38.27;13.80;;;8.40;99.90;;;;;;5094119;28;20297;-75
2023/12/16 11:53:09;;;;;;;34.50;12.20;;;8.40;99.90;;;;;;5097495;28;20689;-76
2023/12/16 11:55:35;;;;;;;43.17;12.73;;;8.50;99.90;;;;;;5097609;28;20611;-76
2023/12/16 11:58:02;;;;;;;36.40;13.10;;;8.50;99.90;;;;;;5097438;28;20351;-76
2023/12/16 12:00:29;;;;;;;30.37;12.07;;;8.50;99.90;;;;;;5097493;28;20270;-76
2023/12/16 12:02:56;;;;;;;35.63;11.77;;;8.50;99.90;;;;;;5097177;28;20779;-75
2023/12/16 12:05:22;;;;;;;39.67;13.57;;;8.50;99.90;;;;;;5097066;28;20765;-76
2023/12/16 12:07:48;;;;;;;32.30;12.40;;;8.50;99.90;;;;;;5097051;28;20630;-80
2023/12/16 12:10:14;;;;;;;37.73;12.10;;;8.60;99.90;;;;;;5079336;28;20298;-75
2023/12/16 12:12:40;;;;;;;34.93;11.97;;;8.60;99.90;;;;;;5096331;28;20815;-75
2023/12/16 12:15:08;;;;;;;32.17;12.90;;;8.60;99.90;;;;;;5097790;28;20039;-76
2023/12/16 12:17:35;;;;;;;34.60;13.23;;;8.60;99.90;;;;;;5095918;28;20499;-76
2023/12/16 12:20:01;;;;;;;34.70;13.13;;;8.60;99.90;;;;;;5097114;28;20281;-79
2023/12/16 12:22:28;;;;;;;29.97;12.13;;;8.60;99.90;;;;;;5097027;28;20777;-75
2023/12/16 12:24:56;;;;;;;36.77;12.00;;;8.60;99.90;;;;;;5096083;28;20354;-76
2023/12/16 12:27:21;;;;;;;36.07;13.13;;;8.70;99.90;;;;;;5096974;28;20270;-77
2023/12/16 12:29:58;;;;;;;35.67;11.90;;;8.70;99.90;;;;;;5096854;28;20297;-78
2023/12/16 12:32:28;;;;;;;28.27;11.23;;;8.70;99.90;;;;;;5096845;28;20044;-81
2023/12/16 12:35:02;;;;;;;34.47;13.30;;;8.70;99.90;;;;;;5096845;28;20275;-78
2023/12/16 12:37:35;;;;;;;39.57;12.37;;;8.70;99.90;;;;;;5096696;28;20282;-78
2023/12/16 12:40:02;;;;;;;35.60;12.00;;;8.70;99.90;;;;;;5097521;28;20266;-80